createdAt,value
2018-03-17T00:00:20.596Z,23.8
2018-03-17T00:01:10.241Z,23.8
2018-03-17T00:02:02.028Z,23.8
2018-03-17T00:02:51.071Z,23.8
2018-03-17T00:03:41.204Z,23.8
2018-03-17T00:04:31.892Z,23.8
2018-03-17T00:05:21.985Z,23.8
2018-03-17T00:06:12.007Z,23.8
2018-03-17T00:07:02.106Z,23.8
2018-03-17T00:07:51.915Z,23.8
2018-03-17T00:08:42.195Z,23.7
2018-03-17T00:09:32.530Z,23.7
2018-03-17T00:10:22.580Z,23.7
2018-03-17T00:11:12.359Z,23.7
2018-03-17T00:12:02.402Z,23.7
2018-03-17T00:12:52.824Z,23.7
2018-03-17T00:13:42.543Z,23.7
2018-03-17T00:14:32.373Z,23.7
2018-03-17T00:15:22.967Z,23.7
2018-03-17T00:16:12.145Z,23.7
2018-03-17T00:17:02.328Z,23.7
2018-03-17T00:17:51.435Z,23.7
2018-03-17T00:18:43.005Z,23.7
2018-03-17T00:19:32.033Z,23.7
2018-03-17T00:20:22.009Z,23.7
2018-03-17T00:21:11.656Z,23.6
2018-03-17T00:22:02.296Z,23.6
2018-03-17T00:22:51.389Z,23.6
2018-03-17T00:23:41.699Z,23.6
2018-03-17T00:24:32.186Z,23.6
2018-03-17T00:25:22.537Z,23.6
2018-03-17T00:26:12.527Z,23.6
2018-03-17T00:27:01.752Z,23.6
2018-03-17T00:27:53.039Z,23.6
2018-03-17T00:28:43.406Z,23.6
2018-03-17T00:29:32.070Z,23.6
2018-03-17T00:30:22.624Z,23.6
2018-03-17T00:31:12.176Z,23.6
2018-03-17T00:32:02.481Z,23.6
2018-03-17T00:32:52.431Z,23.6
2018-03-17T00:33:43.062Z,23.6
2018-03-17T00:34:33.494Z,23.6
2018-03-17T00:35:23.666Z,23.6
2018-03-17T00:36:13.358Z,23.6
2018-03-17T00:37:03.976Z,23.6
2018-03-17T00:37:54.076Z,23.6
2018-03-17T00:38:43.073Z,23.6
2018-03-17T00:39:33.044Z,23.6
2018-03-17T00:40:23.410Z,23.6
2018-03-17T00:41:13.374Z,23.6
2018-03-17T00:42:04.024Z,23.6
2018-03-17T00:42:53.611Z,23.6
2018-03-17T00:43:43.654Z,23.6
2018-03-17T00:44:33.590Z,23.6
2018-03-17T00:45:23.407Z,23.6
2018-03-17T00:46:13.566Z,23.6
2018-03-17T00:47:04.668Z,23.6
2018-03-17T00:47:53.957Z,23.6
2018-03-17T00:48:44.558Z,23.6
2018-03-17T00:49:34.850Z,23.6
2018-03-17T00:50:24.066Z,23.5
2018-03-17T00:51:13.483Z,23.6
2018-03-17T00:52:04.535Z,23.6
2018-03-17T00:52:54.275Z,23.5
2018-03-17T00:53:44.655Z,23.5
2018-03-17T00:54:34.700Z,23.5
2018-03-17T00:55:24.778Z,23.5
2018-03-17T00:56:15.440Z,23.5
2018-03-17T00:57:04.820Z,23.6
2018-03-17T00:57:55.133Z,23.5
2018-03-17T00:58:44.623Z,23.5
2018-03-17T00:59:34.937Z,23.5
2018-03-17T01:00:24.940Z,23.5
2018-03-17T01:01:14.888Z,23.5
2018-03-17T01:02:05.542Z,23.5
2018-03-17T01:02:55.237Z,23.5
2018-03-17T01:03:45.960Z,23.5
2018-03-17T01:04:35.200Z,23.5
2018-03-17T01:05:26.589Z,23.5
2018-03-17T01:06:15.940Z,23.5
2018-03-17T01:07:05.529Z,23.4
2018-03-17T01:07:55.658Z,23.5
2018-03-17T01:08:45.224Z,23.5
2018-03-17T01:09:35.955Z,23.4
2018-03-17T01:10:26.194Z,23.4
2018-03-17T01:11:16.108Z,23.4
2018-03-17T01:12:05.445Z,23.4
2018-03-17T01:12:56.012Z,23.4
2018-03-17T01:13:45.672Z,23.4
2018-03-17T01:14:36.112Z,23.4
2018-03-17T01:15:26.759Z,23.4
2018-03-17T01:16:15.951Z,23.4
2018-03-17T01:17:06.610Z,23.4
2018-03-17T01:17:55.962Z,23.4
2018-03-17T01:18:45.824Z,23.4
2018-03-17T01:19:36.396Z,23.4
2018-03-17T01:20:25.839Z,23.4
2018-03-17T01:21:16.009Z,23.4
2018-03-17T01:22:04.891Z,23.4
2018-03-17T01:22:56.698Z,23.4
2018-03-17T01:23:46.748Z,23.4
2018-03-17T01:24:36.423Z,23.4
2018-03-17T01:25:27.075Z,23.4
2018-03-17T01:26:16.927Z,23.4
2018-03-17T01:27:06.439Z,23.4
2018-03-17T01:27:56.947Z,23.4
2018-03-17T01:28:46.562Z,23.4
2018-03-17T01:29:35.840Z,23.4
2018-03-17T01:30:27.164Z,23.4
2018-03-17T01:31:17.321Z,23.4
2018-03-17T01:32:06.478Z,23.4
2018-03-17T01:32:57.424Z,23.4
2018-03-17T01:33:46.986Z,23.4
2018-03-17T01:34:36.679Z,23.4
2018-03-17T01:35:28.171Z,23.4
2018-03-17T01:36:16.859Z,23.4
2018-03-17T01:37:06.741Z,23.4
2018-03-17T01:37:57.212Z,23.4
2018-03-17T01:38:47.723Z,23.4
2018-03-17T01:39:37.775Z,23.4
2018-03-17T01:40:27.680Z,23.4
2018-03-17T01:41:17.718Z,23.4
2018-03-17T01:42:08.255Z,23.4
2018-03-17T01:42:58.130Z,23.4
2018-03-17T01:43:48.498Z,23.4
2018-03-17T01:44:38.157Z,23.4
2018-03-17T01:45:27.838Z,23.4
2018-03-17T01:46:18.261Z,23.4
2018-03-17T01:47:08.443Z,23.4
2018-03-17T01:47:58.707Z,23.4
2018-03-17T01:48:47.762Z,23.3
2018-03-17T01:49:39.627Z,23.3
2018-03-17T01:50:29.389Z,23.3
2018-03-17T01:51:19.819Z,23.3
2018-03-17T01:52:09.270Z,23.3
2018-03-17T01:52:59.877Z,23.3
2018-03-17T01:53:49.707Z,23.3
2018-03-17T01:54:39.674Z,23.3
2018-03-17T01:55:29.727Z,23.3
2018-03-17T01:56:19.925Z,23.3
2018-03-17T01:57:09.913Z,23.3
2018-03-17T01:58:00.217Z,23.3
2018-03-17T01:58:49.684Z,23.3
2018-03-17T01:59:40.050Z,23.3
2018-03-17T02:00:29.825Z,23.3
2018-03-17T02:01:19.370Z,23.3
2018-03-17T02:02:10.496Z,23.3
2018-03-17T02:03:00.266Z,23.3
2018-03-17T02:03:50.616Z,23.3
2018-03-17T02:04:40.163Z,23.3
2018-03-17T02:05:30.769Z,23.3
2018-03-17T02:06:20.789Z,23.3
2018-03-17T02:07:10.900Z,23.3
2018-03-17T02:07:59.853Z,23.3
2018-03-17T02:08:50.714Z,23.3
2018-03-17T02:09:40.311Z,23.3
2018-03-17T02:10:31.065Z,23.3
2018-03-17T02:11:20.395Z,23.3
2018-03-17T02:12:10.630Z,23.3
2018-03-17T02:13:00.769Z,23.3
2018-03-17T02:13:51.038Z,23.3
2018-03-17T02:14:41.373Z,23.3
2018-03-17T02:15:30.379Z,23.3
2018-03-17T02:16:20.995Z,23.3
2018-03-17T02:17:10.005Z,23.3
2018-03-17T02:18:01.159Z,23.3
2018-03-17T02:18:51.393Z,23.3
2018-03-17T02:19:40.339Z,23.3
2018-03-17T02:20:30.551Z,23.3
2018-03-17T02:21:19.661Z,23.3
2018-03-17T02:22:10.751Z,23.3
2018-03-17T02:23:01.062Z,23.3
2018-03-17T02:23:50.048Z,23.3
2018-03-17T02:24:40.330Z,23.3
2018-03-17T02:25:30.459Z,23.3
2018-03-17T02:26:20.431Z,23.3
2018-03-17T02:27:09.701Z,23.2
2018-03-17T02:28:01.505Z,23.2
2018-03-17T02:28:51.830Z,23.3
2018-03-17T02:29:41.688Z,23.3
2018-03-17T02:30:31.968Z,23.3
2018-03-17T02:31:21.295Z,23.2
2018-03-17T02:32:12.118Z,23.2
2018-03-17T02:33:01.690Z,23.2
2018-03-17T02:33:52.055Z,23.2
2018-03-17T02:34:41.865Z,23.2
2018-03-17T02:35:32.188Z,23.2
2018-03-17T02:36:22.402Z,23.2
2018-03-17T02:37:12.292Z,23.2
2018-03-17T02:38:02.007Z,23.2
2018-03-17T02:38:52.386Z,23.2
2018-03-17T02:39:42.704Z,23.2
2018-03-17T02:40:32.484Z,23.2
2018-03-17T02:41:22.579Z,23.2
2018-03-17T02:42:12.329Z,23.2
2018-03-17T02:43:03.000Z,23.2
2018-03-17T02:43:52.659Z,23.2
2018-03-17T02:44:43.142Z,23.2
2018-03-17T02:45:32.848Z,23.2
2018-03-17T02:46:22.937Z,23.2
2018-03-17T02:47:12.986Z,23.2
2018-03-17T02:48:02.742Z,23.2
2018-03-17T02:48:53.083Z,23.2
2018-03-17T02:49:42.093Z,23.2
2018-03-17T02:50:33.183Z,23.2
2018-03-17T02:51:23.584Z,23.1
2018-03-17T02:52:13.578Z,23.1
2018-03-17T02:53:03.372Z,23.2
2018-03-17T02:53:52.884Z,23.2
2018-03-17T02:54:43.227Z,23.2
2018-03-17T02:55:33.310Z,23.1
2018-03-17T02:56:23.931Z,23.1
2018-03-17T02:57:13.112Z,23.1
2018-03-17T02:58:03.459Z,23.1
2018-03-17T02:58:53.508Z,23.1
2018-03-17T02:59:44.134Z,23.1
2018-03-17T03:00:33.354Z,23.1
2018-03-17T03:01:24.206Z,23.1
2018-03-17T03:02:13.724Z,23.1
2018-03-17T03:03:04.364Z,23.1
2018-03-17T03:03:54.144Z,23.1
2018-03-17T03:04:44.197Z,23.1
2018-03-17T03:05:33.979Z,23.1
2018-03-17T03:06:24.048Z,23.1
2018-03-17T03:07:14.099Z,23.1
2018-03-17T03:08:04.151Z,23.1
2018-03-17T03:08:54.760Z,23.1
2018-03-17T03:09:44.803Z,23.1
2018-03-17T03:10:33.875Z,23.1
2018-03-17T03:11:24.620Z,23.1
2018-03-17T03:12:14.412Z,23.1
2018-03-17T03:13:05.073Z,23.1
2018-03-17T03:13:53.961Z,23.1
2018-03-17T03:14:44.612Z,23.1
2018-03-17T03:15:35.210Z,23.1
2018-03-17T03:16:24.789Z,23.1
2018-03-17T03:17:15.097Z,23.1
2018-03-17T03:18:04.858Z,23.1
2018-03-17T03:18:55.472Z,23.1
2018-03-17T03:19:44.940Z,23.1
2018-03-17T03:20:35.549Z,23.1
2018-03-17T03:21:25.687Z,23.1
2018-03-17T03:22:15.700Z,23.1
2018-03-17T03:23:05.448Z,23.1
2018-03-17T03:23:55.817Z,23.1
2018-03-17T03:24:45.315Z,23.1
2018-03-17T03:25:35.347Z,23.1
2018-03-17T03:26:24.968Z,23.1
2018-03-17T03:27:15.235Z,23.1
2018-03-17T03:28:04.390Z,23.1
2018-03-17T03:28:55.717Z,23.1
2018-03-17T03:29:45.687Z,23.1
2018-03-17T03:30:34.524Z,23.1
2018-03-17T03:31:25.549Z,23.1
2018-03-17T03:32:15.010Z,23.1
2018-03-17T03:33:05.109Z,23.1
2018-03-17T03:33:54.639Z,23.1
2018-03-17T03:34:45.525Z,23.1
2018-03-17T03:35:36.129Z,23.1
2018-03-17T03:36:26.092Z,23
2018-03-17T03:37:15.644Z,23.1
2018-03-17T03:38:06.117Z,23.1
2018-03-17T03:38:55.188Z,23
2018-03-17T03:39:45.816Z,23
2018-03-17T03:40:35.961Z,23.1
2018-03-17T03:41:26.131Z,23
2018-03-17T03:42:15.516Z,23
2018-03-17T03:43:05.361Z,23
2018-03-17T03:43:55.906Z,23
2018-03-17T03:44:45.411Z,23
2018-03-17T03:45:36.008Z,23
2018-03-17T03:46:26.651Z,23.1
2018-03-17T03:47:16.348Z,23
2018-03-17T03:48:07.286Z,23
2018-03-17T03:48:57.389Z,23
2018-03-17T03:49:47.075Z,23
2018-03-17T03:50:37.457Z,23
2018-03-17T03:51:26.910Z,23
2018-03-17T03:52:17.051Z,23
2018-03-17T03:53:07.658Z,23
2018-03-17T03:53:57.376Z,23
2018-03-17T03:54:46.865Z,23
2018-03-17T03:55:37.798Z,23
2018-03-17T03:56:28.146Z,23
2018-03-17T03:57:17.305Z,23
2018-03-17T03:58:07.965Z,23
2018-03-17T03:58:58.297Z,23
2018-03-17T03:59:48.030Z,23
2018-03-17T04:00:38.447Z,23
2018-03-17T04:01:28.049Z,23
2018-03-17T04:02:17.517Z,23
2018-03-17T04:03:07.079Z,23
2018-03-17T04:03:58.081Z,23
2018-03-17T04:04:47.845Z,23
2018-03-17T04:05:37.275Z,23
2018-03-17T04:06:27.405Z,22.9
2018-03-17T04:07:17.513Z,23
2018-03-17T04:08:07.019Z,22.9
2018-03-17T04:08:58.044Z,22.9
2018-03-17T04:09:48.318Z,22.9
2018-03-17T04:10:37.384Z,22.9
2018-03-17T04:11:27.779Z,22.9
2018-03-17T04:12:18.287Z,22.9
2018-03-17T04:13:08.447Z,22.9
2018-03-17T04:13:57.749Z,22.9
2018-03-17T04:14:47.332Z,22.9
2018-03-17T04:15:38.451Z,22.9
2018-03-17T04:16:29.006Z,22.9
2018-03-17T04:17:18.467Z,22.9
2018-03-17T04:18:09.453Z,22.9
2018-03-17T04:18:59.688Z,22.9
2018-03-17T04:19:49.479Z,22.9
2018-03-17T04:20:39.018Z,22.9
2018-03-17T04:21:29.601Z,22.9
2018-03-17T04:22:19.404Z,22.9
2018-03-17T04:23:10.000Z,22.9
2018-03-17T04:23:59.494Z,22.9
2018-03-17T04:24:49.373Z,22.9
2018-03-17T04:25:39.431Z,22.9
2018-03-17T04:26:29.940Z,22.9
2018-03-17T04:27:20.071Z,22.9
2018-03-17T04:28:09.236Z,22.9
2018-03-17T04:28:59.601Z,22.9
2018-03-17T04:29:49.746Z,22.9
2018-03-17T04:30:39.261Z,22.9
2018-03-17T04:31:28.325Z,22.9
2018-03-17T04:32:19.651Z,22.9
2018-03-17T04:33:09.784Z,22.9
2018-03-17T04:33:58.578Z,22.9
2018-03-17T04:34:49.679Z,22.9
2018-03-17T04:35:40.053Z,22.9
2018-03-17T04:36:29.341Z,22.9
2018-03-17T04:37:20.711Z,22.9
2018-03-17T04:38:10.291Z,22.9
2018-03-17T04:38:59.804Z,22.9
2018-03-17T04:39:50.350Z,22.9
2018-03-17T04:40:40.972Z,22.9
2018-03-17T04:41:30.795Z,22.9
2018-03-17T04:42:20.799Z,22.9
2018-03-17T04:43:09.807Z,22.9
2018-03-17T04:44:00.095Z,22.9
2018-03-17T04:44:51.107Z,22.9
2018-03-17T04:45:39.995Z,22.9
2018-03-17T04:46:30.826Z,22.9
2018-03-17T04:47:20.160Z,22.9
2018-03-17T04:48:09.542Z,22.9
2018-03-17T04:49:00.444Z,22.9
2018-03-17T04:49:50.128Z,22.9
2018-03-17T04:50:40.724Z,22.9
2018-03-17T04:51:30.244Z,22.9
2018-03-17T04:52:21.842Z,22.9
2018-03-17T04:53:09.756Z,22.9
2018-03-17T04:54:01.473Z,22.9
2018-03-17T04:54:50.659Z,22.9
2018-03-17T04:55:41.094Z,22.9
2018-03-17T04:56:30.874Z,22.9
2018-03-17T04:57:20.822Z,22.9
2018-03-17T04:58:11.956Z,22.9
2018-03-17T04:59:01.530Z,22.8
2018-03-17T04:59:51.011Z,22.8
2018-03-17T05:00:41.632Z,22.8
2018-03-17T05:01:31.898Z,22.9
2018-03-17T05:02:21.551Z,22.9
2018-03-17T05:03:10.919Z,22.8
2018-03-17T05:04:00.698Z,22.9
2018-03-17T05:04:51.426Z,22.9
2018-03-17T05:05:41.714Z,22.8
2018-03-17T05:06:31.302Z,22.9
2018-03-17T05:07:22.318Z,22.8
2018-03-17T05:08:11.603Z,22.8
2018-03-17T05:09:02.030Z,22.9
2018-03-17T05:09:51.715Z,22.8
2018-03-17T05:10:41.368Z,22.8
2018-03-17T05:11:31.884Z,22.8
2018-03-17T05:12:21.676Z,22.8
2018-03-17T05:13:12.258Z,22.8
2018-03-17T05:14:02.593Z,22.8
2018-03-17T05:14:52.133Z,22.8
2018-03-17T05:15:42.013Z,22.8
2018-03-17T05:16:32.833Z,22.8
2018-03-17T05:17:22.525Z,22.8
2018-03-17T05:18:12.122Z,22.8
2018-03-17T05:19:02.173Z,22.8
2018-03-17T05:19:51.827Z,22.8
2018-03-17T05:20:42.565Z,22.8
2018-03-17T05:21:32.340Z,22.8
2018-03-17T05:22:23.008Z,22.8
2018-03-17T05:23:12.740Z,22.8
2018-03-17T05:24:02.800Z,22.8
2018-03-17T05:24:53.750Z,22.8
2018-03-17T05:25:43.533Z,22.8
2018-03-17T05:26:33.185Z,22.8
2018-03-17T05:27:23.519Z,22.8
2018-03-17T05:28:13.397Z,22.8
2018-03-17T05:29:02.876Z,22.8
2018-03-17T05:29:52.740Z,22.8
2018-03-17T05:30:43.692Z,22.8
2018-03-17T05:31:33.358Z,22.8
2018-03-17T05:32:23.574Z,22.8
2018-03-17T05:33:13.414Z,22.8
2018-03-17T05:34:03.652Z,22.8
2018-03-17T05:34:53.297Z,22.8
2018-03-17T05:35:43.889Z,22.8
2018-03-17T05:36:34.468Z,22.8
2018-03-17T05:37:23.149Z,22.8
2018-03-17T05:38:13.537Z,22.8
2018-03-17T05:39:04.141Z,22.8
2018-03-17T05:39:54.233Z,22.8
2018-03-17T05:40:43.979Z,22.8
2018-03-17T05:41:34.225Z,22.8
2018-03-17T05:42:24.068Z,22.8
2018-03-17T05:43:13.363Z,22.8
2018-03-17T05:44:04.381Z,22.8
2018-03-17T05:44:54.068Z,22.8
2018-03-17T05:45:44.534Z,22.8
2018-03-17T05:46:34.475Z,22.8
2018-03-17T05:47:24.463Z,22.8
2018-03-17T05:48:14.221Z,22.8
2018-03-17T05:49:04.001Z,22.8
2018-03-17T05:49:54.900Z,22.8
2018-03-17T05:50:44.693Z,22.8
2018-03-17T05:51:34.271Z,22.8
2018-03-17T05:52:25.383Z,22.8
2018-03-17T05:53:15.461Z,22.7
2018-03-17T05:54:06.208Z,22.8
2018-03-17T05:54:55.580Z,22.7
2018-03-17T05:55:45.072Z,22.7
2018-03-17T05:56:35.385Z,22.7
2018-03-17T05:57:25.645Z,22.8
2018-03-17T05:58:14.048Z,22.7
2018-03-17T05:59:05.376Z,22.7
2018-03-17T06:00:45.141Z,22.8
2018-03-17T06:01:35.522Z,22.7
2018-03-17T06:02:26.313Z,22.7
2018-03-17T06:03:16.340Z,22.7
2018-03-17T06:04:06.637Z,22.7
2018-03-17T06:04:56.141Z,22.7
2018-03-17T06:05:46.723Z,22.7
2018-03-17T06:06:35.818Z,22.7
2018-03-17T06:07:26.842Z,22.7
2018-03-17T06:08:16.425Z,22.7
2018-03-17T06:09:05.604Z,22.6
2018-03-17T06:09:56.167Z,22.6
2018-03-17T06:10:46.495Z,22.6
2018-03-17T06:11:36.748Z,22.6
2018-03-17T06:12:27.310Z,22.6
2018-03-17T06:13:15.962Z,22.6
2018-03-17T06:14:07.149Z,22.6
2018-03-17T06:14:57.193Z,22.5
2018-03-17T06:15:46.360Z,22.5
2018-03-17T06:16:36.368Z,22.5
2018-03-17T06:17:26.377Z,22.5
2018-03-17T06:18:16.816Z,22.5
2018-03-17T06:19:07.302Z,22.4
2018-03-17T06:19:56.485Z,22.4
2018-03-17T06:20:46.919Z,22.4
2018-03-17T06:21:36.510Z,22.4
2018-03-17T06:22:26.345Z,22.4
2018-03-17T06:23:17.739Z,22.4
2018-03-17T06:24:08.048Z,22.4
2018-03-17T06:24:58.054Z,22.4
2018-03-17T06:25:48.728Z,22.3
2018-03-17T06:26:38.774Z,22.3
2018-03-17T06:27:28.231Z,22.3
2018-03-17T06:28:18.924Z,22.3
2018-03-17T06:29:07.816Z,22.3
2018-03-17T06:29:58.168Z,22.3
2018-03-17T06:30:48.125Z,22.3
2018-03-17T06:31:37.191Z,22.3
2018-03-17T06:32:27.895Z,22.2
2018-03-17T06:33:17.608Z,22.2
2018-03-17T06:34:08.033Z,22.2
2018-03-17T06:34:58.429Z,22.1
2018-03-17T06:35:47.860Z,22.1
2018-03-17T06:36:38.424Z,22.1
2018-03-17T06:37:28.143Z,22.1
2018-03-17T06:38:18.106Z,22.1
2018-03-17T06:39:08.789Z,22.1
2018-03-17T06:39:58.836Z,22.1
2018-03-17T06:40:48.655Z,22
2018-03-17T06:41:39.378Z,22
2018-03-17T06:42:28.575Z,22
2018-03-17T06:43:18.055Z,21.9
2018-03-17T06:44:08.574Z,21.9
2018-03-17T06:44:59.833Z,21.9
2018-03-17T06:45:49.283Z,21.9
2018-03-17T06:46:39.297Z,21.9
2018-03-17T06:47:29.106Z,21.9
2018-03-17T06:48:19.549Z,21.8
2018-03-17T06:49:09.808Z,21.8
2018-03-17T06:49:58.631Z,21.8
2018-03-17T06:50:49.021Z,21.8
2018-03-17T06:51:40.747Z,21.8
2018-03-17T06:52:31.039Z,21.7
2018-03-17T06:53:21.182Z,21.7
2018-03-17T06:54:10.022Z,21.7
2018-03-17T06:55:00.993Z,21.2
2018-03-17T06:55:51.339Z,16.2
2018-03-17T06:56:41.068Z,22.6
2018-03-17T06:57:31.398Z,27.6
2018-03-17T06:58:21.544Z,28.9
2018-03-17T06:59:11.265Z,26.8
2018-03-17T07:00:01.611Z,23.6
2018-03-17T07:00:51.072Z,21.5
2018-03-17T07:01:40.907Z,20.6
2018-03-17T07:02:30.966Z,20.6
2018-03-17T07:03:20.346Z,21.3
2018-03-17T07:04:11.630Z,22.1
2018-03-17T07:05:01.222Z,22.7
2018-03-17T07:05:51.304Z,22.8
2018-03-17T07:06:40.672Z,22.6
2018-03-17T07:07:30.813Z,22.2
2018-03-17T07:08:20.646Z,21.9
2018-03-17T07:09:10.742Z,21.8
2018-03-17T07:10:01.411Z,22
2018-03-17T07:10:51.061Z,22.4
2018-03-17T07:11:41.013Z,22.8
2018-03-17T07:12:30.205Z,23.1
2018-03-17T07:13:21.537Z,23.4
2018-03-17T07:14:10.903Z,23.7
2018-03-17T07:15:01.336Z,23.8
2018-03-17T07:15:51.008Z,23.9
2018-03-17T07:16:41.624Z,24.1
2018-03-17T07:17:32.108Z,24.3
2018-03-17T07:18:21.241Z,24.4
2018-03-17T07:19:12.446Z,24.6
2018-03-17T07:20:01.972Z,24.8
2018-03-17T07:20:51.956Z,24.9
2018-03-17T07:21:42.333Z,25.1
2018-03-17T07:22:32.473Z,25.3
2018-03-17T07:23:22.328Z,25.5
2018-03-17T07:24:12.112Z,25.8
2018-03-17T07:25:02.162Z,26
2018-03-17T07:25:52.024Z,26.2
2018-03-17T07:26:41.559Z,26.3
2018-03-17T07:27:32.040Z,26.5
2018-03-17T07:28:22.076Z,26.7
2018-03-17T07:29:11.857Z,26.9
2018-03-17T07:30:03.114Z,27.1
2018-03-17T07:30:52.964Z,27.2
2018-03-17T07:31:42.231Z,27.3
2018-03-17T07:32:32.461Z,27.5
2018-03-17T07:34:12.910Z,28.2
2018-03-17T07:35:03.593Z,28.6
2018-03-17T07:35:53.150Z,28.9
2018-03-17T07:36:42.795Z,29.1
2018-03-17T07:37:33.243Z,29.3
2018-03-17T07:38:23.217Z,29.5
2018-03-17T07:39:12.557Z,29.7
2018-03-17T07:40:03.117Z,29.8
2018-03-17T07:40:53.570Z,30
2018-03-17T07:41:43.077Z,30.1
2018-03-17T07:42:33.884Z,30.2
2018-03-17T07:43:23.840Z,30.2
2018-03-17T07:44:13.327Z,30.3
2018-03-17T07:45:03.580Z,30.4
2018-03-17T07:45:54.009Z,30.7
2018-03-17T07:46:44.028Z,30.9
2018-03-17T07:47:34.066Z,31.1
2018-03-17T07:48:23.829Z,31.3
2018-03-17T07:49:13.949Z,31.5
2018-03-17T07:50:03.260Z,31.8
2018-03-17T07:50:53.892Z,32.1
2018-03-17T07:51:43.486Z,32.4
2018-03-17T07:52:35.115Z,32.8
2018-03-17T07:53:24.901Z,33.3
2018-03-17T07:54:14.517Z,33.6
2018-03-17T07:55:03.924Z,33.9
2018-03-17T07:55:55.312Z,34.1
2018-03-17T07:56:44.647Z,34.3
2018-03-17T07:57:34.947Z,34.4
2018-03-17T07:58:25.353Z,34.6
2018-03-17T07:59:14.957Z,34.8
2018-03-17T08:00:05.622Z,34.9
2018-03-17T08:00:56.019Z,35
2018-03-17T08:01:44.746Z,35
2018-03-17T08:02:34.447Z,34.9
2018-03-17T08:03:25.074Z,34.9
2018-03-17T08:04:14.641Z,35.2
2018-03-17T08:05:04.149Z,35.4
2018-03-17T08:05:54.656Z,35.7
2018-03-17T08:06:45.221Z,35.8
2018-03-17T08:07:34.918Z,36
2018-03-17T08:08:24.761Z,36.1
2018-03-17T08:09:15.314Z,36.3
2018-03-17T08:10:05.081Z,36.5
2018-03-17T08:10:54.469Z,36.6
2018-03-17T08:11:45.293Z,36.9
2018-03-17T08:12:36.101Z,37.1
2018-03-17T08:13:25.859Z,37.4
2018-03-17T08:14:16.301Z,37.7
2018-03-17T08:15:06.019Z,38
2018-03-17T08:15:55.261Z,38.2
2018-03-17T08:16:46.366Z,38.4
2018-03-17T08:17:36.873Z,38.8
2018-03-17T08:18:26.619Z,39.1
2018-03-17T08:19:15.862Z,39.4
2018-03-17T08:20:07.045Z,39.6
2018-03-17T08:20:56.850Z,39.8
2018-03-17T08:21:46.933Z,39.9
2018-03-17T08:22:37.522Z,39.9
2018-03-17T08:23:27.583Z,39.9
2018-03-17T08:24:17.103Z,40
2018-03-17T08:25:06.580Z,40.1
2018-03-17T08:25:57.771Z,40.3
2018-03-17T08:26:47.248Z,40.4
2018-03-17T08:27:38.341Z,40.5
2018-03-17T08:28:27.930Z,40.6
2018-03-17T08:29:16.360Z,40.8
2018-03-17T08:30:07.344Z,40.9
2018-03-17T08:30:56.383Z,41.1
2018-03-17T08:31:46.920Z,41.3
2018-03-17T08:32:36.514Z,41.4
2018-03-17T08:33:27.747Z,41.6
2018-03-17T08:34:16.661Z,41.8
2018-03-17T08:35:07.205Z,41.9
2018-03-17T08:35:58.089Z,42.1
2018-03-17T08:36:47.106Z,42.4
2018-03-17T08:37:36.278Z,42.6
2018-03-17T08:38:27.832Z,42.8
2018-03-17T08:39:16.871Z,42.9
2018-03-17T08:40:07.012Z,43.1
2018-03-17T08:40:57.898Z,42.5
2018-03-17T08:41:47.943Z,41.4
2018-03-17T08:42:38.084Z,40.2
2018-03-17T08:43:26.998Z,39.1
2018-03-17T08:44:17.536Z,38.6
2018-03-17T08:45:07.970Z,38.6
2018-03-17T08:45:57.934Z,39.3
2018-03-17T08:46:48.099Z,40.4
2018-03-17T08:47:38.686Z,41.4
2018-03-17T08:48:28.011Z,41.4
2018-03-17T08:49:18.292Z,40.6
2018-03-17T08:50:08.152Z,39.4
2018-03-17T08:50:58.499Z,38.8
2018-03-17T08:51:49.047Z,39
2018-03-17T08:52:38.346Z,40.4
2018-03-17T08:53:29.214Z,42.1
2018-03-17T08:54:18.647Z,43.6
2018-03-17T08:55:07.707Z,44.5
2018-03-17T08:55:58.939Z,44.9
2018-03-17T08:56:48.024Z,45.1
2018-03-17T08:57:38.796Z,45.2
2018-03-17T08:58:28.054Z,45.3
2018-03-17T08:59:18.144Z,45.6
2018-03-17T09:00:08.956Z,45.8
2018-03-17T09:00:59.416Z,46
2018-03-17T09:01:48.386Z,46
2018-03-17T09:02:39.168Z,46.1
2018-03-17T09:03:29.614Z,46.3
2018-03-17T09:04:19.440Z,46.6
2018-03-17T09:05:09.308Z,46.9
2018-03-17T09:06:00.099Z,47.3
2018-03-17T09:06:49.614Z,47.4
2018-03-17T09:07:40.218Z,47.6
2018-03-17T09:08:29.749Z,47.8
2018-03-17T09:09:20.136Z,47.8
2018-03-17T09:10:10.437Z,47.4
2018-03-17T09:11:00.706Z,46.8
2018-03-17T09:11:49.898Z,46
2018-03-17T09:12:40.314Z,45.1
2018-03-17T09:13:30.670Z,44.1
2018-03-17T09:14:20.433Z,43.2
2018-03-17T09:15:10.980Z,42.5
2018-03-17T09:16:00.772Z,42.1
2018-03-17T09:16:50.632Z,41.8
2018-03-17T09:17:41.495Z,41.6
2018-03-17T09:18:30.950Z,41.3
2018-03-17T09:19:21.540Z,41.1
2018-03-17T09:20:11.677Z,40.8
2018-03-17T09:21:01.454Z,40.5
2018-03-17T09:21:51.752Z,40.3
2018-03-17T09:22:40.595Z,40.1
2018-03-17T09:23:31.131Z,39.9
2018-03-17T09:24:20.407Z,39.8
2018-03-17T09:25:10.029Z,39.6
2018-03-17T09:26:00.624Z,39.4
2018-03-17T09:26:50.389Z,39.2
2018-03-17T09:27:40.692Z,38.9
2018-03-17T09:28:30.934Z,38.7
2018-03-17T09:29:21.311Z,38.5
2018-03-17T09:30:10.345Z,38.4
2018-03-17T09:31:01.602Z,38.4
2018-03-17T09:31:51.171Z,38.5
2018-03-17T09:32:40.649Z,38.7
2018-03-17T09:33:31.557Z,38.9
2018-03-17T09:34:21.830Z,39.1
2018-03-17T09:35:11.702Z,39.6
2018-03-17T09:36:01.557Z,40.3
2018-03-17T09:36:51.828Z,41.3
2018-03-17T09:37:41.041Z,42
2018-03-17T09:38:31.082Z,42.4
2018-03-17T09:39:21.796Z,42.4
2018-03-17T09:40:10.394Z,42.1
2018-03-17T09:41:02.038Z,41.8
2018-03-17T09:41:52.092Z,41.6
2018-03-17T09:42:42.341Z,41.7
2018-03-17T09:43:32.286Z,41.6
2018-03-17T09:44:22.265Z,41.4
2018-03-17T09:45:13.181Z,41.2
2018-03-17T09:46:02.118Z,41
2018-03-17T09:46:51.649Z,40.8
2018-03-17T09:47:42.049Z,40.8
2018-03-17T09:48:32.159Z,40.6
2018-03-17T09:49:22.034Z,40.6
2018-03-17T09:50:12.791Z,40.6
2018-03-17T09:51:02.352Z,40.8
2018-03-17T09:51:52.492Z,41
2018-03-17T09:52:42.761Z,41.3
2018-03-17T09:53:32.553Z,41.4
2018-03-17T09:54:22.585Z,41.3
2018-03-17T09:55:13.125Z,41.2
2018-03-17T09:56:03.112Z,41.1
2018-03-17T09:56:52.658Z,41.1
2018-03-17T09:57:43.642Z,40.9
2018-03-17T09:58:33.281Z,40.6
2018-03-17T09:59:23.915Z,40.3
2018-03-17T10:00:12.893Z,40
2018-03-17T10:01:02.985Z,39.9
2018-03-17T10:01:53.332Z,40.1
2018-03-17T10:02:43.291Z,40.4
2018-03-17T10:03:34.607Z,40.8
2018-03-17T10:04:23.700Z,41.4
2018-03-17T10:05:13.779Z,42.5
2018-03-17T10:06:03.353Z,43.6
2018-03-17T10:06:53.587Z,44.6
2018-03-17T10:07:44.055Z,45.4
2018-03-17T10:08:33.982Z,45.8
2018-03-17T10:09:23.902Z,46.1
2018-03-17T10:10:14.797Z,46.2
2018-03-17T10:11:04.504Z,46.3
2018-03-17T10:11:54.592Z,46.3
2018-03-17T10:12:44.101Z,46.2
2018-03-17T10:13:33.485Z,45.8
2018-03-17T10:14:25.050Z,45
2018-03-17T10:15:13.785Z,44
2018-03-17T10:16:03.840Z,43.2
2018-03-17T10:16:54.435Z,42.4
2018-03-17T10:17:44.477Z,41.9
2018-03-17T10:18:35.049Z,41.6
2018-03-17T10:19:24.511Z,41.4
2018-03-17T10:20:15.154Z,41.8
2018-03-17T10:21:04.524Z,42.8
2018-03-17T10:21:54.674Z,44.1
2018-03-17T10:22:45.688Z,44.9
2018-03-17T10:23:35.329Z,44.7
2018-03-17T10:24:25.082Z,43.9
2018-03-17T10:25:14.744Z,43
2018-03-17T10:26:05.084Z,42.4
2018-03-17T10:26:55.138Z,42.1
2018-03-17T10:27:44.132Z,42
2018-03-17T10:28:35.610Z,42.1
2018-03-17T10:29:25.756Z,42.5
2018-03-17T10:30:15.411Z,43.7
2018-03-17T10:31:05.358Z,45.1
2018-03-17T10:31:55.486Z,46.4
2018-03-17T10:32:46.068Z,47.5
2018-03-17T10:33:34.946Z,48.2
2018-03-17T10:34:25.424Z,48.6
2018-03-17T10:35:17.224Z,48.8
2018-03-17T10:36:06.246Z,49.1
2018-03-17T10:36:56.693Z,49.4
2018-03-17T10:37:46.093Z,49.8
2018-03-17T10:38:37.023Z,50.1
2018-03-17T10:39:26.064Z,50.3
2018-03-17T10:40:15.386Z,50.3
2018-03-17T10:41:06.055Z,50.1
2018-03-17T10:41:56.233Z,50.1
2018-03-17T10:42:46.794Z,50
2018-03-17T10:43:36.250Z,49.9
2018-03-17T10:44:26.409Z,49.9
2018-03-17T10:45:16.475Z,49.9
2018-03-17T10:46:07.020Z,49.9
2018-03-17T10:46:56.397Z,49.9
2018-03-17T10:47:47.462Z,49.9
2018-03-17T10:48:36.417Z,49.9
2018-03-17T10:49:26.785Z,49.9
2018-03-17T10:50:17.051Z,49.9
2018-03-17T10:51:07.682Z,50
2018-03-17T10:51:56.552Z,50.1
2018-03-17T10:52:47.765Z,50.3
2018-03-17T10:53:37.092Z,50.4
2018-03-17T10:54:27.137Z,50.6
2018-03-17T10:55:17.725Z,50.6
2018-03-17T10:56:07.472Z,50.6
2018-03-17T10:56:57.797Z,50.4
2018-03-17T10:57:46.859Z,50.3
2018-03-17T10:58:36.661Z,50.2
2018-03-17T10:59:26.903Z,50.1
2018-03-17T11:00:17.581Z,49.9
2018-03-17T11:01:07.634Z,50.1
2018-03-17T11:01:57.467Z,50.3
2018-03-17T11:02:47.937Z,50.4
2018-03-17T11:03:38.284Z,50.7
2018-03-17T11:04:28.694Z,50.9
2018-03-17T11:05:17.696Z,51.1
2018-03-17T11:06:09.379Z,51.3
2018-03-17T11:06:58.826Z,51.5
2018-03-17T11:07:48.228Z,51.7
2018-03-17T11:09:28.316Z,52.3
2018-03-17T11:10:19.198Z,52.6
2018-03-17T11:11:08.829Z,53
2018-03-17T11:11:58.418Z,53.3